sensor_id;sensor_type;location;lat;lon;timestamp;P1;durP1;ratioP1;P2;durP2;ratioP2
30998;SDS011;20549;50.042;8.968;2022-11-20T00:00:30;18.93;;;13.83;;
30998;SDS011;20549;50.042;8.968;2022-11-20T00:02:57;20.70;;;14.67;;
30998;SDS011;20549;50.042;8.968;2022-11-20T00:05:23;19.77;;;14.13;;
30998;SDS011;20549;50.042;8.968;2022-11-20T00:07:50;16.93;;;13.17;;
30998;SDS011;20549;50.042;8.968;2022-11-20T00:10:16;17.67;;;13.27;;
30998;SDS011;20549;50.042;8.968;2022-11-20T00:12:43;18.13;;;13.87;;
30998;SDS011;20549;50.042;8.968;2022-11-20T00:15:10;19.87;;;13.97;;
30998;SDS011;20549;50.042;8.968;2022-11-20T00:17:36;18.10;;;15.03;;
30998;SDS011;20549;50.042;8.968;2022-11-20T00:20:03;21.30;;;15.60;;
30998;SDS011;20549;50.042;8.968;2022-11-20T00:22:29;17.67;;;14.60;;
30998;SDS011;20549;50.042;8.968;2022-11-20T00:24:56;19.37;;;14.63;;
30998;SDS011;20549;50.042;8.968;2022-11-20T00:27:22;19.47;;;15.07;;
30998;SDS011;20549;50.042;8.968;2022-11-20T00:29:49;20.43;;;14.00;;
30998;SDS011;20549;50.042;8.968;2022-11-20T00:32:16;19.10;;;14.43;;
30998;SDS011;20549;50.042;8.968;2022-11-20T00:34:42;19.00;;;14.03;;
30998;SDS011;20549;50.042;8.968;2022-11-20T00:37:09;17.73;;;14.10;;
30998;SDS011;20549;50.042;8.968;2022-11-20T00:39:35;19.37;;;14.30;;
30998;SDS011;20549;50.042;8.968;2022-11-20T00:42:02;20.07;;;15.77;;
30998;SDS011;20549;50.042;8.968;2022-11-20T00:44:29;22.17;;;15.07;;
30998;SDS011;20549;50.042;8.968;2022-11-20T00:46:55;18.50;;;14.50;;
30998;SDS011;20549;50.042;8.968;2022-11-20T00:49:22;18.73;;;13.97;;
30998;SDS011;20549;50.042;8.968;2022-11-20T00:51:48;21.80;;;15.63;;
30998;SDS011;20549;50.042;8.968;2022-11-20T00:54:15;18.37;;;13.97;;
30998;SDS011;20549;50.042;8.968;2022-11-20T00:56:42;20.33;;;15.17;;
30998;SDS011;20549;50.042;8.968;2022-11-20T00:59:08;20.90;;;14.90;;
30998;SDS011;20549;50.042;8.968;2022-11-20T01:01:35;18.63;;;14.37;;
30998;SDS011;20549;50.042;8.968;2022-11-20T01:04:01;17.67;;;14.03;;
30998;SDS011;20549;50.042;8.968;2022-11-20T01:06:29;19.33;;;14.80;;
30998;SDS011;20549;50.042;8.968;2022-11-20T01:08:56;18.07;;;14.57;;
30998;SDS011;20549;50.042;8.968;2022-11-20T01:11:22;21.30;;;15.33;;
30998;SDS011;20549;50.042;8.968;2022-11-20T01:13:48;21.23;;;15.27;;
30998;SDS011;20549;50.042;8.968;2022-11-20T01:16:18;21.50;;;15.10;;
30998;SDS011;20549;50.042;8.968;2022-11-20T01:18:44;20.37;;;15.90;;
30998;SDS011;20549;50.042;8.968;2022-11-20T01:21:11;18.63;;;14.23;;
30998;SDS011;20549;50.042;8.968;2022-11-20T01:23:38;18.97;;;15.10;;
30998;SDS011;20549;50.042;8.968;2022-11-20T01:26:04;20.70;;;15.10;;
30998;SDS011;20549;50.042;8.968;2022-11-20T01:28:30;19.03;;;14.97;;
30998;SDS011;20549;50.042;8.968;2022-11-20T01:30:56;21.13;;;14.63;;
30998;SDS011;20549;50.042;8.968;2022-11-20T01:33:23;20.13;;;15.97;;
30998;SDS011;20549;50.042;8.968;2022-11-20T01:35:50;18.40;;;15.10;;
30998;SDS011;20549;50.042;8.968;2022-11-20T01:38:16;19.47;;;15.27;;
30998;SDS011;20549;50.042;8.968;2022-11-20T01:40:43;20.60;;;15.40;;
30998;SDS011;20549;50.042;8.968;2022-11-20T01:43:14;20.63;;;14.63;;
30998;SDS011;20549;50.042;8.968;2022-11-20T01:48:17;20.57;;;14.13;;
30998;SDS011;20549;50.042;8.968;2022-11-20T01:50:43;21.23;;;15.00;;
30998;SDS011;20549;50.042;8.968;2022-11-20T01:53:11;20.23;;;13.93;;
30998;SDS011;20549;50.042;8.968;2022-11-20T01:55:39;18.50;;;14.70;;
30998;SDS011;20549;50.042;8.968;2022-11-20T01:58:03;20.10;;;15.30;;
30998;SDS011;20549;50.042;8.968;2022-11-20T02:00:30;20.43;;;15.50;;
30998;SDS011;20549;50.042;8.968;2022-11-20T02:03:01;18.47;;;14.17;;
30998;SDS011;20549;50.042;8.968;2022-11-20T02:06:00;19.83;;;14.50;;
30998;SDS011;20549;50.042;8.968;2022-11-20T02:08:02;20.33;;;15.43;;
30998;SDS011;20549;50.042;8.968;2022-11-20T02:10:28;20.50;;;14.80;;
30998;SDS011;20549;50.042;8.968;2022-11-20T02:12:54;19.73;;;15.07;;
30998;SDS011;20549;50.042;8.968;2022-11-20T02:15:39;19.17;;;13.97;;
30998;SDS011;20549;50.042;8.968;2022-11-20T02:18:06;20.03;;;14.80;;
30998;SDS011;20549;50.042;8.968;2022-11-20T02:20:32;18.43;;;14.60;;
30998;SDS011;20549;50.042;8.968;2022-11-20T02:23:12;19.47;;;14.47;;
30998;SDS011;20549;50.042;8.968;2022-11-20T02:25:44;21.80;;;15.20;;
30998;SDS011;20549;50.042;8.968;2022-11-20T02:28:10;20.73;;;15.40;;
30998;SDS011;20549;50.042;8.968;2022-11-20T02:30:37;18.50;;;14.80;;
30998;SDS011;20549;50.042;8.968;2022-11-20T02:33:03;19.07;;;13.83;;
30998;SDS011;20549;50.042;8.968;2022-11-20T02:37:58;19.60;;;15.30;;
30998;SDS011;20549;50.042;8.968;2022-11-20T02:40:23;19.73;;;14.67;;
30998;SDS011;20549;50.042;8.968;2022-11-20T02:42:53;22.00;;;15.03;;
30998;SDS011;20549;50.042;8.968;2022-11-20T02:45:19;19.30;;;15.23;;
30998;SDS011;20549;50.042;8.968;2022-11-20T02:47:46;20.80;;;15.20;;
30998;SDS011;20549;50.042;8.968;2022-11-20T02:50:12;21.53;;;14.17;;
30998;SDS011;20549;50.042;8.968;2022-11-20T02:52:39;19.87;;;14.83;;
30998;SDS011;20549;50.042;8.968;2022-11-20T02:55:06;20.70;;;15.37;;
30998;SDS011;20549;50.042;8.968;2022-11-20T02:57:32;18.93;;;14.83;;
30998;SDS011;20549;50.042;8.968;2022-11-20T02:59:59;20.70;;;14.27;;
30998;SDS011;20549;50.042;8.968;2022-11-20T03:02:25;17.83;;;14.30;;
30998;SDS011;20549;50.042;8.968;2022-11-20T03:04:52;21.03;;;14.27;;
30998;SDS011;20549;50.042;8.968;2022-11-20T03:07:18;16.83;;;13.10;;
30998;SDS011;20549;50.042;8.968;2022-11-20T03:09:45;18.50;;;13.40;;
30998;SDS011;20549;50.042;8.968;2022-11-20T03:12:12;18.87;;;14.43;;
30998;SDS011;20549;50.042;8.968;2022-11-20T03:14:38;17.67;;;13.47;;
30998;SDS011;20549;50.042;8.968;2022-11-20T03:17:05;17.87;;;14.00;;
30998;SDS011;20549;50.042;8.968;2022-11-20T03:19:31;20.50;;;13.97;;
30998;SDS011;20549;50.042;8.968;2022-11-20T03:21:58;20.63;;;14.87;;
30998;SDS011;20549;50.042;8.968;2022-11-20T03:24:25;16.03;;;12.17;;
30998;SDS011;20549;50.042;8.968;2022-11-20T03:26:51;15.80;;;13.47;;
30998;SDS011;20549;50.042;8.968;2022-11-20T03:29:18;17.40;;;13.97;;
30998;SDS011;20549;50.042;8.968;2022-11-20T03:31:44;18.30;;;13.90;;
30998;SDS011;20549;50.042;8.968;2022-11-20T03:34:11;17.40;;;13.20;;
30998;SDS011;20549;50.042;8.968;2022-11-20T03:36:38;15.67;;;12.53;;
30998;SDS011;20549;50.042;8.968;2022-11-20T03:39:04;16.53;;;13.03;;
30998;SDS011;20549;50.042;8.968;2022-11-20T03:41:31;17.60;;;12.83;;
30998;SDS011;20549;50.042;8.968;2022-11-20T03:43:58;17.50;;;13.50;;
30998;SDS011;20549;50.042;8.968;2022-11-20T03:46:26;15.83;;;12.20;;
30998;SDS011;20549;50.042;8.968;2022-11-20T03:48:53;16.47;;;12.17;;
30998;SDS011;20549;50.042;8.968;2022-11-20T03:51:21;18.27;;;12.93;;
30998;SDS011;20549;50.042;8.968;2022-11-20T03:53:47;15.17;;;11.90;;
30998;SDS011;20549;50.042;8.968;2022-11-20T03:56:14;16.97;;;12.60;;
30998;SDS011;20549;50.042;8.968;2022-11-20T03:58:41;19.87;;;14.10;;
30998;SDS011;20549;50.042;8.968;2022-11-20T04:01:07;18.83;;;13.00;;
30998;SDS011;20549;50.042;8.968;2022-11-20T04:03:33;16.57;;;13.47;;
30998;SDS011;20549;50.042;8.968;2022-11-20T04:06:05;20.43;;;14.27;;
30998;SDS011;20549;50.042;8.968;2022-11-20T04:08:29;16.17;;;12.07;;
30998;SDS011;20549;50.042;8.968;2022-11-20T04:10:55;15.43;;;12.17;;
30998;SDS011;20549;50.042;8.968;2022-11-20T04:13:22;17.00;;;13.10;;
30998;SDS011;20549;50.042;8.968;2022-11-20T04:15:49;15.87;;;11.87;;
30998;SDS011;20549;50.042;8.968;2022-11-20T04:18:15;15.73;;;11.83;;
30998;SDS011;20549;50.042;8.968;2022-11-20T04:20:42;16.93;;;12.57;;
30998;SDS011;20549;50.042;8.968;2022-11-20T04:23:08;15.80;;;11.97;;
30998;SDS011;20549;50.042;8.968;2022-11-20T04:25:35;13.83;;;10.80;;
30998;SDS011;20549;50.042;8.968;2022-11-20T04:28:01;16.33;;;12.13;;
30998;SDS011;20549;50.042;8.968;2022-11-20T04:30:28;17.83;;;12.87;;
30998;SDS011;20549;50.042;8.968;2022-11-20T04:32:55;17.70;;;13.03;;
30998;SDS011;20549;50.042;8.968;2022-11-20T04:35:21;16.93;;;12.17;;
30998;SDS011;20549;50.042;8.968;2022-11-20T04:37:50;17.43;;;12.83;;
30998;SDS011;20549;50.042;8.968;2022-11-20T04:40:14;15.93;;;12.53;;
30998;SDS011;20549;50.042;8.968;2022-11-20T04:42:41;17.23;;;12.83;;
30998;SDS011;20549;50.042;8.968;2022-11-20T04:45:08;16.30;;;12.43;;
30998;SDS011;20549;50.042;8.968;2022-11-20T04:47:34;13.63;;;11.17;;
30998;SDS011;20549;50.042;8.968;2022-11-20T04:50:01;16.10;;;11.63;;
30998;SDS011;20549;50.042;8.968;2022-11-20T04:52:27;16.67;;;12.53;;
30998;SDS011;20549;50.042;8.968;2022-11-20T04:54:54;14.93;;;12.17;;
30998;SDS011;20549;50.042;8.968;2022-11-20T04:57:21;15.73;;;11.87;;
30998;SDS011;20549;50.042;8.968;2022-11-20T04:59:47;18.43;;;12.03;;
30998;SDS011;20549;50.042;8.968;2022-11-20T05:02:14;14.27;;;11.33;;
30998;SDS011;20549;50.042;8.968;2022-11-20T05:04:40;17.43;;;13.13;;
30998;SDS011;20549;50.042;8.968;2022-11-20T05:07:07;16.40;;;12.60;;
30998;SDS011;20549;50.042;8.968;2022-11-20T05:09:33;15.83;;;11.33;;
30998;SDS011;20549;50.042;8.968;2022-11-20T05:12:00;15.00;;;11.77;;
30998;SDS011;20549;50.042;8.968;2022-11-20T05:14:27;17.53;;;12.80;;
30998;SDS011;20549;50.042;8.968;2022-11-20T05:16:53;17.27;;;12.57;;
30998;SDS011;20549;50.042;8.968;2022-11-20T05:19:20;14.60;;;11.53;;
30998;SDS011;20549;50.042;8.968;2022-11-20T05:21:46;16.40;;;12.10;;
30998;SDS011;20549;50.042;8.968;2022-11-20T05:24:13;16.67;;;12.00;;
30998;SDS011;20549;50.042;8.968;2022-11-20T05:26:40;16.40;;;11.50;;
30998;SDS011;20549;50.042;8.968;2022-11-20T05:29:06;14.50;;;10.67;;
30998;SDS011;20549;50.042;8.968;2022-11-20T05:31:33;15.67;;;10.83;;
30998;SDS011;20549;50.042;8.968;2022-11-20T05:33:59;16.17;;;10.40;;
30998;SDS011;20549;50.042;8.968;2022-11-20T05:36:26;16.93;;;12.33;;
30998;SDS011;20549;50.042;8.968;2022-11-20T05:38:53;18.33;;;12.93;;
30998;SDS011;20549;50.042;8.968;2022-11-20T05:41:20;16.67;;;12.00;;
30998;SDS011;20549;50.042;8.968;2022-11-20T05:43:46;17.43;;;12.77;;
30998;SDS011;20549;50.042;8.968;2022-11-20T05:46:13;16.80;;;12.97;;
30998;SDS011;20549;50.042;8.968;2022-11-20T05:48:40;17.53;;;12.07;;
30998;SDS011;20549;50.042;8.968;2022-11-20T05:51:06;17.73;;;12.03;;
30998;SDS011;20549;50.042;8.968;2022-11-20T05:53:33;16.50;;;12.13;;
30998;SDS011;20549;50.042;8.968;2022-11-20T05:55:59;17.93;;;12.10;;
30998;SDS011;20549;50.042;8.968;2022-11-20T05:58:32;15.67;;;11.67;;
30998;SDS011;20549;50.042;8.968;2022-11-20T06:01:08;16.10;;;11.87;;
30998;SDS011;20549;50.042;8.968;2022-11-20T06:03:34;17.57;;;12.33;;
30998;SDS011;20549;50.042;8.968;2022-11-20T06:06:00;16.47;;;10.57;;
30998;SDS011;20549;50.042;8.968;2022-11-20T06:08:27;17.63;;;11.83;;
30998;SDS011;20549;50.042;8.968;2022-11-20T06:10:53;16.83;;;11.67;;
30998;SDS011;20549;50.042;8.968;2022-11-20T06:13:20;17.03;;;12.23;;
30998;SDS011;20549;50.042;8.968;2022-11-20T06:15:50;17.73;;;12.47;;
30998;SDS011;20549;50.042;8.968;2022-11-20T06:18:16;16.70;;;11.33;;
30998;SDS011;20549;50.042;8.968;2022-11-20T06:20:42;17.87;;;12.23;;
30998;SDS011;20549;50.042;8.968;2022-11-20T06:23:09;18.23;;;12.13;;
30998;SDS011;20549;50.042;8.968;2022-11-20T06:25:39;16.73;;;11.90;;
30998;SDS011;20549;50.042;8.968;2022-11-20T06:28:08;15.33;;;11.00;;
30998;SDS011;20549;50.042;8.968;2022-11-20T06:30:35;16.00;;;11.23;;
30998;SDS011;20549;50.042;8.968;2022-11-20T06:33:01;18.13;;;12.13;;
30998;SDS011;20549;50.042;8.968;2022-11-20T06:35:28;19.47;;;12.50;;
30998;SDS011;20549;50.042;8.968;2022-11-20T06:37:55;16.23;;;11.70;;
30998;SDS011;20549;50.042;8.968;2022-11-20T06:40:21;17.43;;;11.37;;
30998;SDS011;20549;50.042;8.968;2022-11-20T06:42:47;16.10;;;11.63;;
30998;SDS011;20549;50.042;8.968;2022-11-20T06:45:14;17.50;;;11.37;;
30998;SDS011;20549;50.042;8.968;2022-11-20T06:47:41;20.37;;;13.00;;
30998;SDS011;20549;50.042;8.968;2022-11-20T06:50:07;17.00;;;12.80;;
30998;SDS011;20549;50.042;8.968;2022-11-20T06:52:34;16.90;;;11.57;;
30998;SDS011;20549;50.042;8.968;2022-11-20T06:55:00;19.50;;;13.13;;
30998;SDS011;20549;50.042;8.968;2022-11-20T06:57:27;20.20;;;13.37;;
30998;SDS011;20549;50.042;8.968;2022-11-20T06:59:54;19.53;;;13.87;;
30998;SDS011;20549;50.042;8.968;2022-11-20T07:02:20;19.40;;;13.77;;
30998;SDS011;20549;50.042;8.968;2022-11-20T07:04:47;19.53;;;13.03;;
30998;SDS011;20549;50.042;8.968;2022-11-20T07:07:13;20.30;;;14.40;;
30998;SDS011;20549;50.042;8.968;2022-11-20T07:09:40;19.90;;;14.03;;
30998;SDS011;20549;50.042;8.968;2022-11-20T07:12:06;20.50;;;13.20;;
30998;SDS011;20549;50.042;8.968;2022-11-20T07:14:33;20.70;;;14.80;;
30998;SDS011;20549;50.042;8.968;2022-11-20T07:17:00;19.40;;;14.90;;
30998;SDS011;20549;50.042;8.968;2022-11-20T07:19:26;18.70;;;14.07;;
30998;SDS011;20549;50.042;8.968;2022-11-20T07:21:53;20.23;;;13.73;;
30998;SDS011;20549;50.042;8.968;2022-11-20T07:24:19;21.80;;;13.87;;
30998;SDS011;20549;50.042;8.968;2022-11-20T07:26:46;20.23;;;13.57;;
30998;SDS011;20549;50.042;8.968;2022-11-20T07:29:13;18.50;;;13.40;;
30998;SDS011;20549;50.042;8.968;2022-11-20T07:31:39;18.73;;;13.63;;
30998;SDS011;20549;50.042;8.968;2022-11-20T07:34:06;16.27;;;11.43;;
30998;SDS011;20549;50.042;8.968;2022-11-20T07:36:32;16.63;;;12.10;;
30998;SDS011;20549;50.042;8.968;2022-11-20T07:38:59;17.83;;;12.77;;
30998;SDS011;20549;50.042;8.968;2022-11-20T07:41:26;17.03;;;12.70;;
30998;SDS011;20549;50.042;8.968;2022-11-20T07:43:52;16.73;;;12.33;;
30998;SDS011;20549;50.042;8.968;2022-11-20T07:46:19;15.33;;;11.10;;
30998;SDS011;20549;50.042;8.968;2022-11-20T07:48:45;18.03;;;12.93;;
30998;SDS011;20549;50.042;8.968;2022-11-20T07:51:12;18.90;;;13.03;;
30998;SDS011;20549;50.042;8.968;2022-11-20T07:53:38;17.67;;;11.97;;
30998;SDS011;20549;50.042;8.968;2022-11-20T07:56:05;15.70;;;10.27;;
30998;SDS011;20549;50.042;8.968;2022-11-20T07:58:32;14.07;;;10.57;;
30998;SDS011;20549;50.042;8.968;2022-11-20T08:01:08;12.47;;;9.20;;
30998;SDS011;20549;50.042;8.968;2022-11-20T08:03:31;15.17;;;10.87;;
30998;SDS011;20549;50.042;8.968;2022-11-20T08:06:00;13.90;;;10.17;;
30998;SDS011;20549;50.042;8.968;2022-11-20T08:08:27;13.73;;;9.63;;
30998;SDS011;20549;50.042;8.968;2022-11-20T08:10:53;11.33;;;8.20;;
30998;SDS011;20549;50.042;8.968;2022-11-20T08:13:20;11.13;;;8.03;;
30998;SDS011;20549;50.042;8.968;2022-11-20T08:18:40;11.53;;;8.50;;
30998;SDS011;20549;50.042;8.968;2022-11-20T08:21:07;11.90;;;8.63;;
30998;SDS011;20549;50.042;8.968;2022-11-20T08:23:34;11.10;;;8.10;;
30998;SDS011;20549;50.042;8.968;2022-11-20T08:26:00;9.30;;;7.07;;
30998;SDS011;20549;50.042;8.968;2022-11-20T08:28:27;10.17;;;8.20;;
30998;SDS011;20549;50.042;8.968;2022-11-20T08:30:58;11.33;;;8.50;;
30998;SDS011;20549;50.042;8.968;2022-11-20T08:33:20;12.23;;;9.40;;
30998;SDS011;20549;50.042;8.968;2022-11-20T08:35:47;12.23;;;8.83;;
30998;SDS011;20549;50.042;8.968;2022-11-20T08:38:13;13.13;;;9.27;;
30998;SDS011;20549;50.042;8.968;2022-11-20T08:40:40;13.87;;;10.00;;
30998;SDS011;20549;50.042;8.968;2022-11-20T08:43:06;13.93;;;10.50;;
30998;SDS011;20549;50.042;8.968;2022-11-20T08:45:33;15.43;;;10.50;;
30998;SDS011;20549;50.042;8.968;2022-11-20T08:48:00;14.77;;;10.30;;
30998;SDS011;20549;50.042;8.968;2022-11-20T08:50:26;15.83;;;11.30;;
30998;SDS011;20549;50.042;8.968;2022-11-20T08:52:53;14.50;;;10.40;;
30998;SDS011;20549;50.042;8.968;2022-11-20T08:55:19;15.43;;;10.43;;
30998;SDS011;20549;50.042;8.968;2022-11-20T08:57:46;15.97;;;10.70;;
30998;SDS011;20549;50.042;8.968;2022-11-20T09:00:12;15.70;;;10.77;;
30998;SDS011;20549;50.042;8.968;2022-11-20T09:02:39;15.70;;;11.00;;
30998;SDS011;20549;50.042;8.968;2022-11-20T09:05:06;13.00;;;10.07;;
30998;SDS011;20549;50.042;8.968;2022-11-20T09:07:32;13.20;;;10.67;;
30998;SDS011;20549;50.042;8.968;2022-11-20T09:09:59;13.63;;;9.97;;
30998;SDS011;20549;50.042;8.968;2022-11-20T09:12:26;15.30;;;10.53;;
30998;SDS011;20549;50.042;8.968;2022-11-20T09:14:52;13.33;;;9.87;;
30998;SDS011;20549;50.042;8.968;2022-11-20T09:17:19;16.23;;;10.73;;
30998;SDS011;20549;50.042;8.968;2022-11-20T09:19:45;14.77;;;10.80;;
30998;SDS011;20549;50.042;8.968;2022-11-20T09:22:12;15.57;;;10.73;;
30998;SDS011;20549;50.042;8.968;2022-11-20T09:24:38;15.00;;;10.93;;
30998;SDS011;20549;50.042;8.968;2022-11-20T09:27:05;15.93;;;11.13;;
30998;SDS011;20549;50.042;8.968;2022-11-20T09:29:32;19.30;;;12.67;;
30998;SDS011;20549;50.042;8.968;2022-11-20T09:31:58;15.83;;;11.87;;
30998;SDS011;20549;50.042;8.968;2022-11-20T09:34:25;15.90;;;11.50;;
30998;SDS011;20549;50.042;8.968;2022-11-20T09:36:51;16.67;;;12.50;;
30998;SDS011;20549;50.042;8.968;2022-11-20T09:39:19;18.53;;;12.87;;
30998;SDS011;20549;50.042;8.968;2022-11-20T09:41:55;17.20;;;13.17;;
30998;SDS011;20549;50.042;8.968;2022-11-20T09:44:26;17.30;;;12.47;;
30998;SDS011;20549;50.042;8.968;2022-11-20T09:46:54;18.47;;;13.13;;
30998;SDS011;20549;50.042;8.968;2022-11-20T09:54:49;19.40;;;12.40;;
30998;SDS011;20549;50.042;8.968;2022-11-20T09:57:19;19.87;;;13.27;;
30998;SDS011;20549;50.042;8.968;2022-11-20T09:59:49;17.93;;;12.63;;
30998;SDS011;20549;50.042;8.968;2022-11-20T10:05:02;15.73;;;11.67;;
30998;SDS011;20549;50.042;8.968;2022-11-20T10:10:04;15.97;;;12.20;;
30998;SDS011;20549;50.042;8.968;2022-11-20T10:12:37;16.67;;;12.50;;
30998;SDS011;20549;50.042;8.968;2022-11-20T10:15:11;15.57;;;12.27;;
30998;SDS011;20549;50.042;8.968;2022-11-20T10:17:59;16.00;;;12.17;;
30998;SDS011;20549;50.042;8.968;2022-11-20T10:22:53;15.70;;;12.93;;
30998;SDS011;20549;50.042;8.968;2022-11-20T10:25:50;15.33;;;12.60;;
30998;SDS011;20549;50.042;8.968;2022-11-20T10:28:22;17.47;;;11.63;;
30998;SDS011;20549;50.042;8.968;2022-11-20T10:30:45;14.47;;;11.70;;
30998;SDS011;20549;50.042;8.968;2022-11-20T10:33:16;15.53;;;12.37;;
30998;SDS011;20549;50.042;8.968;2022-11-20T10:38:42;13.53;;;11.30;;
30998;SDS011;20549;50.042;8.968;2022-11-20T10:41:05;13.83;;;11.03;;
30998;SDS011;20549;50.042;8.968;2022-11-20T10:43:57;14.97;;;11.97;;
30998;SDS011;20549;50.042;8.968;2022-11-20T10:46:17;13.00;;;10.53;;
30998;SDS011;20549;50.042;8.968;2022-11-20T10:48:43;12.23;;;10.67;;
30998;SDS011;20549;50.042;8.968;2022-11-20T10:51:12;13.77;;;11.40;;
30998;SDS011;20549;50.042;8.968;2022-11-20T11:02:14;17.13;;;11.13;;
30998;SDS011;20549;50.042;8.968;2022-11-20T11:07:01;16.00;;;11.73;;
30998;SDS011;20549;50.042;8.968;2022-11-20T11:09:28;15.37;;;11.40;;
30998;SDS011;20549;50.042;8.968;2022-11-20T11:11:52;15.60;;;12.20;;
30998;SDS011;20549;50.042;8.968;2022-11-20T11:14:18;15.23;;;12.07;;
30998;SDS011;20549;50.042;8.968;2022-11-20T11:16:55;14.90;;;12.73;;
30998;SDS011;20549;50.042;8.968;2022-11-20T11:19:22;13.60;;;11.30;;
30998;SDS011;20549;50.042;8.968;2022-11-20T11:21:52;13.40;;;10.90;;
30998;SDS011;20549;50.042;8.968;2022-11-20T11:24:25;12.80;;;10.93;;
30998;SDS011;20549;50.042;8.968;2022-11-20T11:27:14;12.87;;;10.43;;
30998;SDS011;20549;50.042;8.968;2022-11-20T11:29:23;13.50;;;10.87;;
30998;SDS011;20549;50.042;8.968;2022-11-20T11:31:50;14.17;;;10.83;;
30998;SDS011;20549;50.042;8.968;2022-11-20T11:34:16;13.70;;;11.47;;
30998;SDS011;20549;50.042;8.968;2022-11-20T11:36:53;12.97;;;11.30;;
30998;SDS011;20549;50.042;8.968;2022-11-20T11:39:19;13.63;;;10.73;;
30998;SDS011;20549;50.042;8.968;2022-11-20T11:41:45;12.33;;;10.23;;
30998;SDS011;20549;50.042;8.968;2022-11-20T11:44:21;13.93;;;11.27;;
30998;SDS011;20549;50.042;8.968;2022-11-20T11:47:08;13.17;;;10.70;;
30998;SDS011;20549;50.042;8.968;2022-11-20T11:49:32;14.73;;;11.73;;
30998;SDS011;20549;50.042;8.968;2022-11-20T11:54:36;13.60;;;10.87;;
30998;SDS011;20549;50.042;8.968;2022-11-20T11:57:05;12.20;;;10.57;;
30998;SDS011;20549;50.042;8.968;2022-11-20T12:05:00;11.93;;;10.50;;
30998;SDS011;20549;50.042;8.968;2022-11-20T12:10:04;12.10;;;9.93;;
30998;SDS011;20549;50.042;8.968;2022-11-20T12:12:32;16.10;;;12.00;;
30998;SDS011;20549;50.042;8.968;2022-11-20T12:14:57;14.60;;;12.27;;
30998;SDS011;20549;50.042;8.968;2022-11-20T12:17:24;14.20;;;11.97;;
30998;SDS011;20549;50.042;8.968;2022-11-20T12:19:50;15.10;;;12.23;;
30998;SDS011;20549;50.042;8.968;2022-11-20T12:22:27;15.30;;;12.43;;
30998;SDS011;20549;50.042;8.968;2022-11-20T12:25:08;16.87;;;12.90;;
30998;SDS011;20549;50.042;8.968;2022-11-20T12:30:10;13.33;;;11.17;;
30998;SDS011;20549;50.042;8.968;2022-11-20T12:37:53;16.30;;;11.83;;
30998;SDS011;20549;50.042;8.968;2022-11-20T12:40:20;14.60;;;11.60;;
30998;SDS011;20549;50.042;8.968;2022-11-20T12:42:54;12.53;;;11.23;;
30998;SDS011;20549;50.042;8.968;2022-11-20T12:45:48;12.50;;;10.37;;
30998;SDS011;20549;50.042;8.968;2022-11-20T12:48:17;15.30;;;12.57;;
30998;SDS011;20549;50.042;8.968;2022-11-20T12:50:51;15.03;;;11.77;;
30998;SDS011;20549;50.042;8.968;2022-11-20T12:59:29;10.30;;;9.07;;
30998;SDS011;20549;50.042;8.968;2022-11-20T13:02:21;10.00;;;8.87;;
30998;SDS011;20549;50.042;8.968;2022-11-20T13:04:55;9.83;;;8.83;;
30998;SDS011;20549;50.042;8.968;2022-11-20T13:07:18;11.00;;;9.17;;
30998;SDS011;20549;50.042;8.968;2022-11-20T13:09:46;12.33;;;11.03;;
30998;SDS011;20549;50.042;8.968;2022-11-20T13:12:14;13.80;;;10.43;;
30998;SDS011;20549;50.042;8.968;2022-11-20T13:14:50;10.57;;;9.53;;
30998;SDS011;20549;50.042;8.968;2022-11-20T13:19:49;9.70;;;8.73;;
30998;SDS011;20549;50.042;8.968;2022-11-20T13:22:27;8.70;;;7.83;;
30998;SDS011;20549;50.042;8.968;2022-11-20T13:24:53;11.50;;;8.63;;
30998;SDS011;20549;50.042;8.968;2022-11-20T13:27:23;9.50;;;8.40;;
30998;SDS011;20549;50.042;8.968;2022-11-20T13:29:47;9.30;;;7.90;;
30998;SDS011;20549;50.042;8.968;2022-11-20T13:34:50;9.47;;;7.93;;
30998;SDS011;20549;50.042;8.968;2022-11-20T13:37:23;8.90;;;7.60;;
30998;SDS011;20549;50.042;8.968;2022-11-20T13:39:34;10.30;;;8.10;;
30998;SDS011;20549;50.042;8.968;2022-11-20T13:42:00;8.67;;;7.80;;
30998;SDS011;20549;50.042;8.968;2022-11-20T13:44:38;8.60;;;7.70;;
30998;SDS011;20549;50.042;8.968;2022-11-20T13:47:04;9.13;;;8.10;;
30998;SDS011;20549;50.042;8.968;2022-11-20T13:49:38;9.00;;;8.10;;
30998;SDS011;20549;50.042;8.968;2022-11-20T13:52:15;8.47;;;7.57;;
30998;SDS011;20549;50.042;8.968;2022-11-20T14:00:29;11.40;;;9.63;;
30998;SDS011;20549;50.042;8.968;2022-11-20T14:05:35;7.80;;;6.93;;
30998;SDS011;20549;50.042;8.968;2022-11-20T14:08:02;9.23;;;7.77;;
30998;SDS011;20549;50.042;8.968;2022-11-20T14:10:28;8.70;;;7.87;;
30998;SDS011;20549;50.042;8.968;2022-11-20T14:12:54;7.90;;;7.10;;
30998;SDS011;20549;50.042;8.968;2022-11-20T14:15:39;8.10;;;7.30;;
30998;SDS011;20549;50.042;8.968;2022-11-20T14:17:56;7.80;;;7.00;;
30998;SDS011;20549;50.042;8.968;2022-11-20T14:20:25;7.90;;;7.17;;
30998;SDS011;20549;50.042;8.968;2022-11-20T14:22:49;7.43;;;6.50;;
30998;SDS011;20549;50.042;8.968;2022-11-20T14:27:43;7.60;;;6.90;;
30998;SDS011;20549;50.042;8.968;2022-11-20T14:30:15;7.60;;;6.80;;
30998;SDS011;20549;50.042;8.968;2022-11-20T14:32:42;7.77;;;7.00;;
30998;SDS011;20549;50.042;8.968;2022-11-20T14:35:09;7.87;;;7.07;;
30998;SDS011;20549;50.042;8.968;2022-11-20T14:37:36;9.53;;;7.83;;
30998;SDS011;20549;50.042;8.968;2022-11-20T14:40:01;10.20;;;7.23;;
30998;SDS011;20549;50.042;8.968;2022-11-20T14:42:28;9.10;;;7.43;;
30998;SDS011;20549;50.042;8.968;2022-11-20T14:44:55;7.63;;;6.80;;
30998;SDS011;20549;50.042;8.968;2022-11-20T14:47:21;9.57;;;8.13;;
30998;SDS011;20549;50.042;8.968;2022-11-20T14:49:48;9.17;;;7.23;;
30998;SDS011;20549;50.042;8.968;2022-11-20T14:52:16;9.10;;;7.43;;
30998;SDS011;20549;50.042;8.968;2022-11-20T14:54:47;8.60;;;7.47;;
30998;SDS011;20549;50.042;8.968;2022-11-20T14:57:26;10.63;;;8.33;;
30998;SDS011;20549;50.042;8.968;2022-11-20T15:00:03;9.70;;;8.53;;
30998;SDS011;20549;50.042;8.968;2022-11-20T15:02:18;10.77;;;9.13;;
30998;SDS011;20549;50.042;8.968;2022-11-20T15:04:45;10.63;;;8.57;;
30998;SDS011;20549;50.042;8.968;2022-11-20T15:07:23;8.70;;;7.63;;
30998;SDS011;20549;50.042;8.968;2022-11-20T15:09:58;9.17;;;8.27;;
30998;SDS011;20549;50.042;8.968;2022-11-20T15:12:29;8.33;;;7.50;;
30998;SDS011;20549;50.042;8.968;2022-11-20T15:14:54;9.83;;;8.30;;
30998;SDS011;20549;50.042;8.968;2022-11-20T15:17:21;9.83;;;8.03;;
30998;SDS011;20549;50.042;8.968;2022-11-20T15:19:48;11.10;;;8.23;;
30998;SDS011;20549;50.042;8.968;2022-11-20T15:22:14;11.07;;;8.50;;
30998;SDS011;20549;50.042;8.968;2022-11-20T15:24:41;8.63;;;7.73;;
30998;SDS011;20549;50.042;8.968;2022-11-20T15:27:08;10.00;;;8.53;;
30998;SDS011;20549;50.042;8.968;2022-11-20T15:29:34;9.90;;;7.80;;
30998;SDS011;20549;50.042;8.968;2022-11-20T15:32:01;8.77;;;7.77;;
30998;SDS011;20549;50.042;8.968;2022-11-20T15:34:27;8.57;;;7.67;;
30998;SDS011;20549;50.042;8.968;2022-11-20T15:36:54;11.73;;;8.80;;
30998;SDS011;20549;50.042;8.968;2022-11-20T15:39:20;9.67;;;8.67;;
30998;SDS011;20549;50.042;8.968;2022-11-20T15:41:47;11.67;;;8.93;;
30998;SDS011;20549;50.042;8.968;2022-11-20T15:44:13;11.10;;;9.33;;